sensor_id;sensor_type;location;lat;lon;timestamp;temperature;humidity
6114;DHT22;3087;48.392;10.836;2024-02-21T00:02:07;6.10;99.90
6114;DHT22;3087;48.392;10.836;2024-02-21T00:04:33;6.10;99.90
6114;DHT22;3087;48.392;10.836;2024-02-21T00:06:59;6.10;99.90
6114;DHT22;3087;48.392;10.836;2024-02-21T00:09:24;6.00;99.90
6114;DHT22;3087;48.392;10.836;2024-02-21T00:11:50;6.10;99.90
6114;DHT22;3087;48.392;10.836;2024-02-21T00:14:15;6.20;99.90
6114;DHT22;3087;48.392;10.836;2024-02-21T00:16:41;6.20;99.90
6114;DHT22;3087;48.392;10.836;2024-02-21T00:19:07;6.20;99.90
6114;DHT22;3087;48.392;10.836;2024-02-21T00:21:32;6.20;99.90
6114;DHT22;3087;48.392;10.836;2024-02-21T00:23:58;6.20;99.90
6114;DHT22;3087;48.392;10.836;2024-02-21T00:26:23;6.80;99.90
6114;DHT22;3087;48.392;10.836;2024-02-21T00:28:49;6.40;99.90
6114;DHT22;3087;48.392;10.836;2024-02-21T00:31:15;6.40;99.90
6114;DHT22;3087;48.392;10.836;2024-02-21T00:33:40;7.50;99.90
6114;DHT22;3087;48.392;10.836;2024-02-21T00:36:06;6.60;99.90
6114;DHT22;3087;48.392;10.836;2024-02-21T00:38:32;6.70;99.90
6114;DHT22;3087;48.392;10.836;2024-02-21T00:40:58;6.80;99.90
6114;DHT22;3087;48.392;10.836;2024-02-21T00:43:23;6.80;99.90
6114;DHT22;3087;48.392;10.836;2024-02-21T00:45:50;6.90;99.90
6114;DHT22;3087;48.392;10.836;2024-02-21T00:48:16;6.90;99.90
6114;DHT22;3087;48.392;10.836;2024-02-21T00:50:41;6.90;99.90
6114;DHT22;3087;48.392;10.836;2024-02-21T00:53:07;6.90;99.90
6114;DHT22;3087;48.392;10.836;2024-02-21T00:55:34;7.00;99.90
6114;DHT22;3087;48.392;10.836;2024-02-21T00:57:59;7.00;99.90
6114;DHT22;3087;48.392;10.836;2024-02-21T01:00:25;6.80;99.90
6114;DHT22;3087;48.392;10.836;2024-02-21T01:02:50;7.60;99.90
6114;DHT22;3087;48.392;10.836;2024-02-21T01:05:16;6.50;99.90
6114;DHT22;3087;48.392;10.836;2024-02-21T01:07:41;6.20;99.90
6114;DHT22;3087;48.392;10.836;2024-02-21T01:10:07;6.30;99.90
6114;DHT22;3087;48.392;10.836;2024-02-21T01:12:33;6.50;99.90
6114;DHT22;3087;48.392;10.836;2024-02-21T01:14:59;6.60;99.90
6114;DHT22;3087;48.392;10.836;2024-02-21T01:17:24;6.60;99.90
6114;DHT22;3087;48.392;10.836;2024-02-21T01:19:50;6.70;99.90
6114;DHT22;3087;48.392;10.836;2024-02-21T01:22:15;6.00;99.90
6114;DHT22;3087;48.392;10.836;2024-02-21T01:24:41;6.00;99.90
6114;DHT22;3087;48.392;10.836;2024-02-21T01:27:07;6.20;99.90
6114;DHT22;3087;48.392;10.836;2024-02-21T01:29:33;6.20;99.90
6114;DHT22;3087;48.392;10.836;2024-02-21T01:31:58;6.10;99.90
6114;DHT22;3087;48.392;10.836;2024-02-21T01:34:24;6.10;99.90
6114;DHT22;3087;48.392;10.836;2024-02-21T01:36:49;6.30;99.90
6114;DHT22;3087;48.392;10.836;2024-02-21T01:39:15;6.10;99.90
6114;DHT22;3087;48.392;10.836;2024-02-21T01:41:41;6.00;99.90
6114;DHT22;3087;48.392;10.836;2024-02-21T01:44:06;5.90;99.90
6114;DHT22;3087;48.392;10.836;2024-02-21T01:46:32;5.90;99.90
6114;DHT22;3087;48.392;10.836;2024-02-21T01:48:58;5.80;99.90
6114;DHT22;3087;48.392;10.836;2024-02-21T01:51:24;5.80;99.90
6114;DHT22;3087;48.392;10.836;2024-02-21T01:53:51;6.10;99.90
6114;DHT22;3087;48.392;10.836;2024-02-21T01:56:17;5.90;99.90
6114;DHT22;3087;48.392;10.836;2024-02-21T01:58:44;5.90;99.90
6114;DHT22;3087;48.392;10.836;2024-02-21T02:01:10;6.00;99.90
6114;DHT22;3087;48.392;10.836;2024-02-21T02:03:36;6.00;99.90
6114;DHT22;3087;48.392;10.836;2024-02-21T02:06:03;6.20;99.90
6114;DHT22;3087;48.392;10.836;2024-02-21T02:08:29;5.90;99.90
6114;DHT22;3087;48.392;10.836;2024-02-21T02:10:56;5.80;99.90
6114;DHT22;3087;48.392;10.836;2024-02-21T02:13:22;5.70;99.90
6114;DHT22;3087;48.392;10.836;2024-02-21T02:15:49;5.70;99.90
6114;DHT22;3087;48.392;10.836;2024-02-21T02:18:16;5.70;99.90
6114;DHT22;3087;48.392;10.836;2024-02-21T02:20:42;5.60;99.90
6114;DHT22;3087;48.392;10.836;2024-02-21T02:23:30;5.60;99.90
6114;DHT22;3087;48.392;10.836;2024-02-21T02:25:59;5.60;99.90
6114;DHT22;3087;48.392;10.836;2024-02-21T02:28:27;5.60;99.90
6114;DHT22;3087;48.392;10.836;2024-02-21T02:30:53;5.60;99.90
6114;DHT22;3087;48.392;10.836;2024-02-21T02:33:18;5.70;99.90
6114;DHT22;3087;48.392;10.836;2024-02-21T02:35:44;5.70;99.90
6114;DHT22;3087;48.392;10.836;2024-02-21T02:38:10;5.60;99.90
6114;DHT22;3087;48.392;10.836;2024-02-21T02:40:38;5.70;99.90
6114;DHT22;3087;48.392;10.836;2024-02-21T02:43:04;5.50;99.90
6114;DHT22;3087;48.392;10.836;2024-02-21T02:45:30;5.60;99.90
6114;DHT22;3087;48.392;10.836;2024-02-21T02:47:56;5.80;99.90
6114;DHT22;3087;48.392;10.836;2024-02-21T02:50:26;5.60;99.90
6114;DHT22;3087;48.392;10.836;2024-02-21T02:52:52;5.70;99.90
6114;DHT22;3087;48.392;10.836;2024-02-21T02:55:18;5.70;99.90
6114;DHT22;3087;48.392;10.836;2024-02-21T02:57:44;5.70;99.90
6114;DHT22;3087;48.392;10.836;2024-02-21T03:00:13;5.80;99.90
6114;DHT22;3087;48.392;10.836;2024-02-21T03:02:41;5.80;99.90
6114;DHT22;3087;48.392;10.836;2024-02-21T03:05:15;5.80;99.90
6114;DHT22;3087;48.392;10.836;2024-02-21T03:07:40;5.90;99.90
6114;DHT22;3087;48.392;10.836;2024-02-21T03:10:06;5.80;99.90
6114;DHT22;3087;48.392;10.836;2024-02-21T03:12:32;5.90;99.90
6114;DHT22;3087;48.392;10.836;2024-02-21T03:14:57;5.90;99.90
6114;DHT22;3087;48.392;10.836;2024-02-21T03:17:24;5.90;99.90
6114;DHT22;3087;48.392;10.836;2024-02-21T03:19:50;6.00;99.90
6114;DHT22;3087;48.392;10.836;2024-02-21T03:22:16;6.00;99.90
6114;DHT22;3087;48.392;10.836;2024-02-21T03:24:42;5.90;99.90
6114;DHT22;3087;48.392;10.836;2024-02-21T03:27:07;5.90;99.90
6114;DHT22;3087;48.392;10.836;2024-02-21T03:29:33;6.00;99.90
6114;DHT22;3087;48.392;10.836;2024-02-21T03:31:59;5.90;99.90
6114;DHT22;3087;48.392;10.836;2024-02-21T03:34:24;5.90;99.90
6114;DHT22;3087;48.392;10.836;2024-02-21T03:36:50;6.10;99.90
6114;DHT22;3087;48.392;10.836;2024-02-21T03:39:15;6.00;99.90
6114;DHT22;3087;48.392;10.836;2024-02-21T03:41:41;6.10;99.90
6114;DHT22;3087;48.392;10.836;2024-02-21T03:44:06;6.10;99.90
6114;DHT22;3087;48.392;10.836;2024-02-21T03:46:32;6.10;99.90
6114;DHT22;3087;48.392;10.836;2024-02-21T03:48:58;6.10;99.90
6114;DHT22;3087;48.392;10.836;2024-02-21T03:51:23;6.10;99.90
6114;DHT22;3087;48.392;10.836;2024-02-21T03:53:49;6.10;99.90
6114;DHT22;3087;48.392;10.836;2024-02-21T03:56:15;6.10;99.90
6114;DHT22;3087;48.392;10.836;2024-02-21T03:58:40;6.10;99.90
6114;DHT22;3087;48.392;10.836;2024-02-21T04:01:06;6.00;99.90
6114;DHT22;3087;48.392;10.836;2024-02-21T04:03:31;6.00;99.90
6114;DHT22;3087;48.392;10.836;2024-02-21T04:05:57;6.10;99.90
6114;DHT22;3087;48.392;10.836;2024-02-21T04:08:23;6.10;99.90
6114;DHT22;3087;48.392;10.836;2024-02-21T04:10:49;6.10;99.90
6114;DHT22;3087;48.392;10.836;2024-02-21T04:13:14;6.00;99.90
6114;DHT22;3087;48.392;10.836;2024-02-21T04:15:40;6.00;99.90
6114;DHT22;3087;48.392;10.836;2024-02-21T04:18:06;6.00;99.90
6114;DHT22;3087;48.392;10.836;2024-02-21T04:20:31;5.90;99.90
6114;DHT22;3087;48.392;10.836;2024-02-21T04:22:57;5.90;99.90
6114;DHT22;3087;48.392;10.836;2024-02-21T04:25:23;5.90;99.90
6114;DHT22;3087;48.392;10.836;2024-02-21T04:27:48;5.90;99.90
6114;DHT22;3087;48.392;10.836;2024-02-21T04:30:14;5.90;99.90
6114;DHT22;3087;48.392;10.836;2024-02-21T04:32:41;5.80;99.90
6114;DHT22;3087;48.392;10.836;2024-02-21T04:35:07;5.90;99.90
6114;DHT22;3087;48.392;10.836;2024-02-21T04:37:33;5.90;99.90
6114;DHT22;3087;48.392;10.836;2024-02-21T04:39:59;5.90;99.90
6114;DHT22;3087;48.392;10.836;2024-02-21T04:42:24;5.90;99.90
6114;DHT22;3087;48.392;10.836;2024-02-21T04:44:50;5.80;99.90
6114;DHT22;3087;48.392;10.836;2024-02-21T04:47:15;5.90;99.90
6114;DHT22;3087;48.392;10.836;2024-02-21T04:49:41;6.00;99.90
6114;DHT22;3087;48.392;10.836;2024-02-21T04:52:07;5.90;99.90
6114;DHT22;3087;48.392;10.836;2024-02-21T04:54:32;5.90;99.90
6114;DHT22;3087;48.392;10.836;2024-02-21T04:56:58;5.90;99.90
6114;DHT22;3087;48.392;10.836;2024-02-21T04:59:23;5.90;99.90
6114;DHT22;3087;48.392;10.836;2024-02-21T05:01:49;6.10;99.90
6114;DHT22;3087;48.392;10.836;2024-02-21T05:04:14;6.00;99.90
6114;DHT22;3087;48.392;10.836;2024-02-21T05:06:41;6.00;99.90
6114;DHT22;3087;48.392;10.836;2024-02-21T05:09:07;6.00;99.90
6114;DHT22;3087;48.392;10.836;2024-02-21T05:11:37;6.00;99.90
6114;DHT22;3087;48.392;10.836;2024-02-21T05:14:06;6.00;99.90
6114;DHT22;3087;48.392;10.836;2024-02-21T05:16:32;6.10;99.90
6114;DHT22;3087;48.392;10.836;2024-02-21T05:18:57;6.10;99.90
6114;DHT22;3087;48.392;10.836;2024-02-21T05:21:23;6.10;99.90
6114;DHT22;3087;48.392;10.836;2024-02-21T05:23:50;6.10;99.90
6114;DHT22;3087;48.392;10.836;2024-02-21T05:26:26;6.10;99.90
6114;DHT22;3087;48.392;10.836;2024-02-21T05:28:52;6.20;99.90
6114;DHT22;3087;48.392;10.836;2024-02-21T05:31:19;6.20;99.90
6114;DHT22;3087;48.392;10.836;2024-02-21T05:33:45;6.20;99.90
6114;DHT22;3087;48.392;10.836;2024-02-21T05:36:11;6.50;99.90
6114;DHT22;3087;48.392;10.836;2024-02-21T05:38:37;6.30;99.90
6114;DHT22;3087;48.392;10.836;2024-02-21T05:41:03;6.40;99.90
6114;DHT22;3087;48.392;10.836;2024-02-21T05:43:29;6.40;99.90
6114;DHT22;3087;48.392;10.836;2024-02-21T05:45:54;6.70;99.90
6114;DHT22;3087;48.392;10.836;2024-02-21T05:48:21;6.40;99.90
6114;DHT22;3087;48.392;10.836;2024-02-21T05:50:47;6.30;99.90
6114;DHT22;3087;48.392;10.836;2024-02-21T05:53:12;6.30;99.90
6114;DHT22;3087;48.392;10.836;2024-02-21T05:55:38;6.30;99.90
6114;DHT22;3087;48.392;10.836;2024-02-21T05:58:05;6.30;99.90
6114;DHT22;3087;48.392;10.836;2024-02-21T06:00:31;6.40;99.90
6114;DHT22;3087;48.392;10.836;2024-02-21T06:02:57;6.20;99.90
6114;DHT22;3087;48.392;10.836;2024-02-21T06:05:23;6.20;99.90
6114;DHT22;3087;48.392;10.836;2024-02-21T06:07:49;6.20;99.90
6114;DHT22;3087;48.392;10.836;2024-02-21T06:10:15;6.10;99.90
6114;DHT22;3087;48.392;10.836;2024-02-21T06:12:40;6.20;99.90
6114;DHT22;3087;48.392;10.836;2024-02-21T06:15:06;6.20;99.90
6114;DHT22;3087;48.392;10.836;2024-02-21T06:17:32;6.20;99.90
6114;DHT22;3087;48.392;10.836;2024-02-21T06:19:57;6.50;99.90
6114;DHT22;3087;48.392;10.836;2024-02-21T06:22:23;6.20;99.90
6114;DHT22;3087;48.392;10.836;2024-02-21T06:24:48;6.20;99.90
6114;DHT22;3087;48.392;10.836;2024-02-21T06:27:15;6.20;99.90
6114;DHT22;3087;48.392;10.836;2024-02-21T06:29:41;6.20;99.90
6114;DHT22;3087;48.392;10.836;2024-02-21T06:32:07;6.20;99.90
6114;DHT22;3087;48.392;10.836;2024-02-21T06:34:33;6.10;99.90
6114;DHT22;3087;48.392;10.836;2024-02-21T06:36:58;6.10;99.90
6114;DHT22;3087;48.392;10.836;2024-02-21T06:39:24;6.10;99.90
6114;DHT22;3087;48.392;10.836;2024-02-21T06:41:50;6.10;99.90
6114;DHT22;3087;48.392;10.836;2024-02-21T06:44:19;6.30;99.90
6114;DHT22;3087;48.392;10.836;2024-02-21T06:46:45;6.30;99.90
6114;DHT22;3087;48.392;10.836;2024-02-21T06:49:10;6.30;99.90
6114;DHT22;3087;48.392;10.836;2024-02-21T06:51:43;6.30;99.90
6114;DHT22;3087;48.392;10.836;2024-02-21T06:54:08;6.30;99.90
6114;DHT22;3087;48.392;10.836;2024-02-21T06:56:35;6.20;99.90
6114;DHT22;3087;48.392;10.836;2024-02-21T06:59:01;6.50;99.90
6114;DHT22;3087;48.392;10.836;2024-02-21T07:01:26;6.40;99.90
6114;DHT22;3087;48.392;10.836;2024-02-21T07:03:52;6.50;99.90
6114;DHT22;3087;48.392;10.836;2024-02-21T07:06:17;6.80;99.90
6114;DHT22;3087;48.392;10.836;2024-02-21T07:08:43;6.50;99.90
6114;DHT22;3087;48.392;10.836;2024-02-21T07:11:09;6.60;99.90
6114;DHT22;3087;48.392;10.836;2024-02-21T07:13:34;6.50;99.90
6114;DHT22;3087;48.392;10.836;2024-02-21T07:16:00;6.50;99.90
6114;DHT22;3087;48.392;10.836;2024-02-21T07:18:25;6.60;99.90
6114;DHT22;3087;48.392;10.836;2024-02-21T07:20:52;6.60;99.90
6114;DHT22;3087;48.392;10.836;2024-02-21T07:23:18;6.80;99.90
6114;DHT22;3087;48.392;10.836;2024-02-21T07:25:44;7.00;99.90
6114;DHT22;3087;48.392;10.836;2024-02-21T07:28:09;7.00;99.90
6114;DHT22;3087;48.392;10.836;2024-02-21T07:30:35;7.00;99.90
6114;DHT22;3087;48.392;10.836;2024-02-21T07:33:01;6.90;99.90
6114;DHT22;3087;48.392;10.836;2024-02-21T07:35:26;7.00;99.90
6114;DHT22;3087;48.392;10.836;2024-02-21T07:37:52;6.90;99.90
6114;DHT22;3087;48.392;10.836;2024-02-21T07:40:18;6.90;99.90
6114;DHT22;3087;48.392;10.836;2024-02-21T07:42:44;6.80;99.90
6114;DHT22;3087;48.392;10.836;2024-02-21T07:45:10;6.80;99.90
6114;DHT22;3087;48.392;10.836;2024-02-21T07:47:37;7.00;99.90
6114;DHT22;3087;48.392;10.836;2024-02-21T07:50:03;6.90;99.90
6114;DHT22;3087;48.392;10.836;2024-02-21T07:52:29;6.80;99.90
6114;DHT22;3087;48.392;10.836;2024-02-21T07:54:55;6.90;99.90
6114;DHT22;3087;48.392;10.836;2024-02-21T07:57:20;6.90;99.90
6114;DHT22;3087;48.392;10.836;2024-02-21T07:59:47;7.00;99.90
6114;DHT22;3087;48.392;10.836;2024-02-21T08:02:16;7.20;99.90
6114;DHT22;3087;48.392;10.836;2024-02-21T08:04:42;7.30;99.90
6114;DHT22;3087;48.392;10.836;2024-02-21T08:07:08;7.30;99.90
6114;DHT22;3087;48.392;10.836;2024-02-21T08:09:34;7.30;99.90
6114;DHT22;3087;48.392;10.836;2024-02-21T08:12:02;7.40;99.90
6114;DHT22;3087;48.392;10.836;2024-02-21T08:14:28;7.50;99.90
6114;DHT22;3087;48.392;10.836;2024-02-21T08:16:54;7.70;99.90
6114;DHT22;3087;48.392;10.836;2024-02-21T08:19:21;7.70;99.90
6114;DHT22;3087;48.392;10.836;2024-02-21T08:21:48;7.70;99.90
6114;DHT22;3087;48.392;10.836;2024-02-21T08:24:14;7.80;99.90
6114;DHT22;3087;48.392;10.836;2024-02-21T08:26:47;8.00;99.90
6114;DHT22;3087;48.392;10.836;2024-02-21T08:29:13;8.20;99.90
6114;DHT22;3087;48.392;10.836;2024-02-21T08:31:38;8.30;99.90
6114;DHT22;3087;48.392;10.836;2024-02-21T08:34:04;8.40;99.90
6114;DHT22;3087;48.392;10.836;2024-02-21T08:36:31;8.40;99.90
6114;DHT22;3087;48.392;10.836;2024-02-21T08:38:59;8.60;99.90
6114;DHT22;3087;48.392;10.836;2024-02-21T08:41:30;8.60;99.90
6114;DHT22;3087;48.392;10.836;2024-02-21T08:43:56;8.70;99.90
6114;DHT22;3087;48.392;10.836;2024-02-21T08:46:21;8.80;99.90
6114;DHT22;3087;48.392;10.836;2024-02-21T08:48:47;8.80;99.90
6114;DHT22;3087;48.392;10.836;2024-02-21T08:51:16;8.90;99.90
6114;DHT22;3087;48.392;10.836;2024-02-21T08:53:42;8.90;99.90
6114;DHT22;3087;48.392;10.836;2024-02-21T08:56:07;9.20;99.90
6114;DHT22;3087;48.392;10.836;2024-02-21T08:58:36;9.10;99.90
6114;DHT22;3087;48.392;10.836;2024-02-21T09:01:03;9.10;99.90
6114;DHT22;3087;48.392;10.836;2024-02-21T09:03:36;9.20;99.90
6114;DHT22;3087;48.392;10.836;2024-02-21T09:06:10;9.30;99.90
6114;DHT22;3087;48.392;10.836;2024-02-21T09:08:35;9.40;99.90
6114;DHT22;3087;48.392;10.836;2024-02-21T09:11:01;9.40;99.90
6114;DHT22;3087;48.392;10.836;2024-02-21T09:13:27;9.40;99.90
6114;DHT22;3087;48.392;10.836;2024-02-21T09:15:53;9.30;99.90
6114;DHT22;3087;48.392;10.836;2024-02-21T09:18:18;9.50;99.90
6114;DHT22;3087;48.392;10.836;2024-02-21T09:20:44;9.60;99.90
6114;DHT22;3087;48.392;10.836;2024-02-21T09:23:10;9.80;99.90
6114;DHT22;3087;48.392;10.836;2024-02-21T09:25:36;9.90;99.90
6114;DHT22;3087;48.392;10.836;2024-02-21T09:28:02;10.60;99.90
6114;DHT22;3087;48.392;10.836;2024-02-21T09:30:28;10.10;99.90
6114;DHT22;3087;48.392;10.836;2024-02-21T09:32:54;10.10;99.90
6114;DHT22;3087;48.392;10.836;2024-02-21T09:35:20;10.10;99.90
6114;DHT22;3087;48.392;10.836;2024-02-21T09:37:48;9.90;99.90
6114;DHT22;3087;48.392;10.836;2024-02-21T09:40:17;9.90;99.90
6114;DHT22;3087;48.392;10.836;2024-02-21T09:42:44;9.80;99.90
6114;DHT22;3087;48.392;10.836;2024-02-21T09:45:21;10.10;99.90
6114;DHT22;3087;48.392;10.836;2024-02-21T09:48:25;10.20;99.90
6114;DHT22;3087;48.392;10.836;2024-02-21T09:50:55;10.40;99.90
6114;DHT22;3087;48.392;10.836;2024-02-21T09:53:24;10.50;99.90
6114;DHT22;3087;48.392;10.836;2024-02-21T09:55:50;10.50;99.90
6114;DHT22;3087;48.392;10.836;2024-02-21T09:58:16;10.70;99.90
6114;DHT22;3087;48.392;10.836;2024-02-21T10:00:42;11.40;99.90
6114;DHT22;3087;48.392;10.836;2024-02-21T10:03:07;12.50;99.90
6114;DHT22;3087;48.392;10.836;2024-02-21T10:05:35;13.00;99.70
6114;DHT22;3087;48.392;10.836;2024-02-21T10:08:02;13.70;99.20
6114;DHT22;3087;48.392;10.836;2024-02-21T10:10:28;14.40;98.90
6114;DHT22;3087;48.392;10.836;2024-02-21T10:12:56;14.70;98.00
6114;DHT22;3087;48.392;10.836;2024-02-21T10:15:25;15.20;97.90
6114;DHT22;3087;48.392;10.836;2024-02-21T10:18:01;14.80;97.30
6114;DHT22;3087;48.392;10.836;2024-02-21T10:20:29;14.30;97.10
6114;DHT22;3087;48.392;10.836;2024-02-21T10:23:05;13.60;96.60
6114;DHT22;3087;48.392;10.836;2024-02-21T10:25:35;13.20;96.60
6114;DHT22;3087;48.392;10.836;2024-02-21T10:28:02;13.20;96.60
6114;DHT22;3087;48.392;10.836;2024-02-21T10:30:29;13.10;96.50
6114;DHT22;3087;48.392;10.836;2024-02-21T10:32:54;13.50;97.50
6114;DHT22;3087;48.392;10.836;2024-02-21T10:35:29;14.30;97.50
6114;DHT22;3087;48.392;10.836;2024-02-21T10:37:56;14.60;96.20
6114;DHT22;3087;48.392;10.836;2024-02-21T10:40:29;15.00;96.60
6114;DHT22;3087;48.392;10.836;2024-02-21T10:43:02;15.60;97.70
6114;DHT22;3087;48.392;10.836;2024-02-21T10:45:31;16.10;99.20
6114;DHT22;3087;48.392;10.836;2024-02-21T10:48:13;16.10;96.60
6114;DHT22;3087;48.392;10.836;2024-02-21T10:54:13;15.40;93.50
6114;DHT22;3087;48.392;10.836;2024-02-21T10:56:45;14.30;94.20
6114;DHT22;3087;48.392;10.836;2024-02-21T10:59:13;14.20;94.90
6114;DHT22;3087;48.392;10.836;2024-02-21T11:01:39;14.10;94.10
6114;DHT22;3087;48.392;10.836;2024-02-21T11:04:06;14.10;95.20
6114;DHT22;3087;48.392;10.836;2024-02-21T11:06:34;14.50;94.90
6114;DHT22;3087;48.392;10.836;2024-02-21T11:11:26;14.70;93.40
6114;DHT22;3087;48.392;10.836;2024-02-21T11:13:52;14.90;94.40
6114;DHT22;3087;48.392;10.836;2024-02-21T11:16:22;15.20;93.20
6114;DHT22;3087;48.392;10.836;2024-02-21T11:18:48;15.10;93.90
6114;DHT22;3087;48.392;10.836;2024-02-21T11:21:14;15.60;93.30
6114;DHT22;3087;48.392;10.836;2024-02-21T11:23:40;15.70;92.60
6114;DHT22;3087;48.392;10.836;2024-02-21T11:26:09;15.80;93.60
6114;DHT22;3087;48.392;10.836;2024-02-21T11:28:36;16.20;93.10
6114;DHT22;3087;48.392;10.836;2024-02-21T11:31:11;16.30;91.50
6114;DHT22;3087;48.392;10.836;2024-02-21T11:33:39;16.40;92.80
6114;DHT22;3087;48.392;10.836;2024-02-21T11:36:05;16.70;93.60
6114;DHT22;3087;48.392;10.836;2024-02-21T11:38:31;16.50;91.30
6114;DHT22;3087;48.392;10.836;2024-02-21T11:40:57;16.50;91.50
6114;DHT22;3087;48.392;10.836;2024-02-21T11:43:23;16.90;91.40
6114;DHT22;3087;48.392;10.836;2024-02-21T11:45:49;17.30;94.10
6114;DHT22;3087;48.392;10.836;2024-02-21T11:48:14;16.80;88.60
6114;DHT22;3087;48.392;10.836;2024-02-21T11:50:40;16.90;89.50
6114;DHT22;3087;48.392;10.836;2024-02-21T11:53:06;16.90;89.50
6114;DHT22;3087;48.392;10.836;2024-02-21T11:55:31;17.50;91.20
6114;DHT22;3087;48.392;10.836;2024-02-21T11:57:57;18.40;92.10
6114;DHT22;3087;48.392;10.836;2024-02-21T12:00:23;19.00;90.80
6114;DHT22;3087;48.392;10.836;2024-02-21T12:02:52;19.50;89.40
6114;DHT22;3087;48.392;10.836;2024-02-21T12:05:21;19.20;89.90
6114;DHT22;3087;48.392;10.836;2024-02-21T12:07:46;20.00;90.40
6114;DHT22;3087;48.392;10.836;2024-02-21T12:10:15;20.90;90.20
6114;DHT22;3087;48.392;10.836;2024-02-21T12:12:41;21.20;87.00
6114;DHT22;3087;48.392;10.836;2024-02-21T12:15:08;21.20;87.70
6114;DHT22;3087;48.392;10.836;2024-02-21T12:17:35;20.80;84.90
6114;DHT22;3087;48.392;10.836;2024-02-21T12:20:04;19.10;81.20
6114;DHT22;3087;48.392;10.836;2024-02-21T12:22:43;17.90;82.50
6114;DHT22;3087;48.392;10.836;2024-02-21T12:25:18;17.00;82.30
6114;DHT22;3087;48.392;10.836;2024-02-21T12:27:45;17.10;84.30
6114;DHT22;3087;48.392;10.836;2024-02-21T12:30:11;17.60;87.80
6114;DHT22;3087;48.392;10.836;2024-02-21T12:32:37;17.70;83.70
6114;DHT22;3087;48.392;10.836;2024-02-21T12:35:03;17.10;82.70
6114;DHT22;3087;48.392;10.836;2024-02-21T12:37:29;16.60;82.70
6114;DHT22;3087;48.392;10.836;2024-02-21T12:39:55;16.30;83.40
6114;DHT22;3087;48.392;10.836;2024-02-21T12:42:20;16.40;84.30
6114;DHT22;3087;48.392;10.836;2024-02-21T12:44:46;16.40;83.60
6114;DHT22;3087;48.392;10.836;2024-02-21T12:47:12;16.40;83.10
6114;DHT22;3087;48.392;10.836;2024-02-21T12:49:37;16.20;84.00
6114;DHT22;3087;48.392;10.836;2024-02-21T12:52:03;16.30;86.50
6114;DHT22;3087;48.392;10.836;2024-02-21T12:54:29;16.40;84.20
6114;DHT22;3087;48.392;10.836;2024-02-21T12:56:56;16.40;85.30
6114;DHT22;3087;48.392;10.836;2024-02-21T12:59:22;16.80;87.00
6114;DHT22;3087;48.392;10.836;2024-02-21T13:01:48;17.10;88.80
6114;DHT22;3087;48.392;10.836;2024-02-21T13:04:14;16.70;84.70
6114;DHT22;3087;48.392;10.836;2024-02-21T13:06:39;16.30;84.60
6114;DHT22;3087;48.392;10.836;2024-02-21T13:09:05;16.20;85.20
6114;DHT22;3087;48.392;10.836;2024-02-21T13:11:36;16.40;85.60
6114;DHT22;3087;48.392;10.836;2024-02-21T13:14:01;16.60;85.50
6114;DHT22;3087;48.392;10.836;2024-02-21T13:16:27;17.00;85.90
6114;DHT22;3087;48.392;10.836;2024-02-21T13:18:52;17.50;85.90
6114;DHT22;3087;48.392;10.836;2024-02-21T13:21:18;17.50;84.00
6114;DHT22;3087;48.392;10.836;2024-02-21T13:23:44;17.60;88.10
6114;DHT22;3087;48.392;10.836;2024-02-21T13:26:10;17.30;82.90
6114;DHT22;3087;48.392;10.836;2024-02-21T13:28:36;17.40;86.10
6114;DHT22;3087;48.392;10.836;2024-02-21T13:31:01;17.60;83.80
6114;DHT22;3087;48.392;10.836;2024-02-21T13:33:28;17.50;82.50
6114;DHT22;3087;48.392;10.836;2024-02-21T13:35:54;17.60;82.80
6114;DHT22;3087;48.392;10.836;2024-02-21T13:38:20;18.00;85.30
6114;DHT22;3087;48.392;10.836;2024-02-21T13:40:45;17.60;80.10
6114;DHT22;3087;48.392;10.836;2024-02-21T13:43:11;17.20;80.70
6114;DHT22;3087;48.392;10.836;2024-02-21T13:45:37;17.10;81.10
6114;DHT22;3087;48.392;10.836;2024-02-21T13:48:04;16.60;80.30
6114;DHT22;3087;48.392;10.836;2024-02-21T13:50:31;16.40;81.20
6114;DHT22;3087;48.392;10.836;2024-02-21T13:52:57;16.40;81.80
6114;DHT22;3087;48.392;10.836;2024-02-21T13:55:23;16.30;82.90
6114;DHT22;3087;48.392;10.836;2024-02-21T13:57:51;16.40;84.60
6114;DHT22;3087;48.392;10.836;2024-02-21T14:00:17;16.40;81.90
6114;DHT22;3087;48.392;10.836;2024-02-21T14:02:44;16.00;81.60
6114;DHT22;3087;48.392;10.836;2024-02-21T14:05:10;15.80;82.10
6114;DHT22;3087;48.392;10.836;2024-02-21T14:07:38;16.00;86.30
6114;DHT22;3087;48.392;10.836;2024-02-21T14:10:04;16.00;83.70
6114;DHT22;3087;48.392;10.836;2024-02-21T14:12:30;16.10;84.00
6114;DHT22;3087;48.392;10.836;2024-02-21T14:14:57;16.00;81.90
6114;DHT22;3087;48.392;10.836;2024-02-21T14:17:26;16.00;82.60
6114;DHT22;3087;48.392;10.836;2024-02-21T14:19:53;15.60;83.50
6114;DHT22;3087;48.392;10.836;2024-02-21T14:22:18;15.60;85.80
6114;DHT22;3087;48.392;10.836;2024-02-21T14:24:44;15.70;84.70
6114;DHT22;3087;48.392;10.836;2024-02-21T14:27:10;15.80;84.00
6114;DHT22;3087;48.392;10.836;2024-02-21T14:29:36;15.90;85.60
6114;DHT22;3087;48.392;10.836;2024-02-21T14:32:03;15.90;86.50
6114;DHT22;3087;48.392;10.836;2024-02-21T14:34:28;15.90;88.10
6114;DHT22;3087;48.392;10.836;2024-02-21T14:36:54;15.90;86.80
6114;DHT22;3087;48.392;10.836;2024-02-21T14:39:20;15.70;82.50
6114;DHT22;3087;48.392;10.836;2024-02-21T14:41:45;15.30;82.20
6114;DHT22;3087;48.392;10.836;2024-02-21T14:44:11;15.10;82.40
6114;DHT22;3087;48.392;10.836;2024-02-21T14:46:37;14.80;81.80
6114;DHT22;3087;48.392;10.836;2024-02-21T14:49:03;14.80;82.20
6114;DHT22;3087;48.392;10.836;2024-02-21T14:51:29;14.50;82.60
6114;DHT22;3087;48.392;10.836;2024-02-21T14:53:56;14.30;83.20
6114;DHT22;3087;48.392;10.836;2024-02-21T14:56:21;14.30;85.20
6114;DHT22;3087;48.392;10.836;2024-02-21T14:58:48;14.40;83.70
6114;DHT22;3087;48.392;10.836;2024-02-21T15:01:14;14.50;83.70
6114;DHT22;3087;48.392;10.836;2024-02-21T15:03:39;14.50;84.00
6114;DHT22;3087;48.392;10.836;2024-02-21T15:06:05;14.40;84.20
6114;DHT22;3087;48.392;10.836;2024-02-21T15:08:30;14.20;84.70
6114;DHT22;3087;48.392;10.836;2024-02-21T15:10:56;14.10;86.20
6114;DHT22;3087;48.392;10.836;2024-02-21T15:13:21;13.90;86.40
6114;DHT22;3087;48.392;10.836;2024-02-21T15:15:48;14.40;85.40
6114;DHT22;3087;48.392;10.836;2024-02-21T15:18:14;14.30;83.60
6114;DHT22;3087;48.392;10.836;2024-02-21T15:20:43;14.20;83.00
6114;DHT22;3087;48.392;10.836;2024-02-21T15:23:08;14.10;84.50
6114;DHT22;3087;48.392;10.836;2024-02-21T15:25:34;14.20;83.90
6114;DHT22;3087;48.392;10.836;2024-02-21T15:28:00;14.40;84.90
6114;DHT22;3087;48.392;10.836;2024-02-21T15:30:27;14.10;84.10
6114;DHT22;3087;48.392;10.836;2024-02-21T15:32:57;14.10;83.70
6114;DHT22;3087;48.392;10.836;2024-02-21T15:35:29;14.00;83.10
6114;DHT22;3087;48.392;10.836;2024-02-21T15:37:56;13.80;83.50
6114;DHT22;3087;48.392;10.836;2024-02-21T15:40:24;13.80;83.80
6114;DHT22;3087;48.392;10.836;2024-02-21T15:42:50;13.60;83.40
6114;DHT22;3087;48.392;10.836;2024-02-21T15:45:15;13.40;83.20
6114;DHT22;3087;48.392;10.836;2024-02-21T15:47:41;13.30;84.10
6114;DHT22;3087;48.392;10.836;2024-02-21T15:50:07;13.20;85.10
6114;DHT22;3087;48.392;10.836;2024-02-21T15:52:35;13.20;85.30
6114;DHT22;3087;48.392;10.836;2024-02-21T15:55:08;13.20;85.40
6114;DHT22;3087;48.392;10.836;2024-02-21T15:57:46;13.10;85.50